<?xml version="1.0" encoding="UTF-8" standalone="no" ?>
<gpx xmlns="http://www.topografix.com/GPX/1/1" xmlns:xsi="http://www.w3.org/2001/XMLSchema-instance" xsi:schemaLocation="http://www.topografix.com/GPX/1/1 http://www.topografix.com/GPX/1/1/gpx.xsd" version="1.1" creator="VisuGPX - https://www.visugpx.com">
  <metadata>
    <name>21-La romieu_Larressingle</name>
  </metadata>
  <trk>
    <name><![CDATA[21-La romieu_Larressingle]]></name>
    <trkseg>
      <trkpt lat="43.98108" lon="0.49972">
        <ele>185</ele>
        <time>2021-03-13T19:17:30+01:00</time>
      </trkpt>
      <trkpt lat="43.98142" lon="0.49905">
        <ele>185</ele>
        <time>2021-03-13T19:17:35+01:00</time>
      </trkpt>
      <trkpt lat="43.98184" lon="0.49816">
        <ele>183</ele>
        <time>2021-03-13T19:17:40+01:00</time>
      </trkpt>
      <trkpt lat="43.98196" lon="0.49776">
        <ele>184</ele>
        <time>2021-03-13T19:17:45+01:00</time>
      </trkpt>
      <trkpt lat="43.98213" lon="0.49708">
        <ele>184</ele>
        <time>2021-03-13T19:17:50+01:00</time>
      </trkpt>
      <trkpt lat="43.98221" lon="0.4967">
        <ele>184</ele>
        <time>2021-03-13T19:17:55+01:00</time>
      </trkpt>
      <trkpt lat="43.9823" lon="0.49596">
        <ele>184</ele>
        <time>2021-03-13T19:18:00+01:00</time>
      </trkpt>
      <trkpt lat="43.98229" lon="0.49574">
        <ele>185</ele>
        <time>2021-03-13T19:18:05+01:00</time>
      </trkpt>
      <trkpt lat="43.98222" lon="0.49561">
        <ele>186</ele>
        <time>2021-03-13T19:18:10+01:00</time>
      </trkpt>
      <trkpt lat="43.98195" lon="0.49498">
        <ele>190</ele>
        <time>2021-03-13T19:18:15+01:00</time>
      </trkpt>
      <trkpt lat="43.98183" lon="0.49464">
        <ele>190</ele>
        <time>2021-03-13T19:18:20+01:00</time>
      </trkpt>
      <trkpt lat="43.98167" lon="0.49399">
        <ele>192</ele>
        <time>2021-03-13T19:18:25+01:00</time>
      </trkpt>
      <trkpt lat="43.98158" lon="0.49358">
        <ele>193</ele>
        <time>2021-03-13T19:18:30+01:00</time>
      </trkpt>
      <trkpt lat="43.98156" lon="0.49335">
        <ele>193</ele>
        <time>2021-03-13T19:18:35+01:00</time>
      </trkpt>
      <trkpt lat="43.98156" lon="0.49289">
        <ele>194</ele>
        <time>2021-03-13T19:18:40+01:00</time>
      </trkpt>
      <trkpt lat="43.98158" lon="0.49207">
        <ele>197</ele>
        <time>2021-03-13T19:18:45+01:00</time>
      </trkpt>
      <trkpt lat="43.98161" lon="0.49057">
        <ele>201</ele>
        <time>2021-03-13T19:18:50+01:00</time>
      </trkpt>
      <trkpt lat="43.98166" lon="0.48973">
        <ele>203</ele>
        <time>2021-03-13T19:18:55+01:00</time>
      </trkpt>
      <trkpt lat="43.98171" lon="0.4894">
        <ele>204</ele>
        <time>2021-03-13T19:19:00+01:00</time>
      </trkpt>
      <trkpt lat="43.98171" lon="0.4894">
        <ele>204</ele>
        <time>2021-03-13T19:19:05+01:00</time>
      </trkpt>
      <trkpt lat="43.9818" lon="0.48889">
        <ele>205</ele>
        <time>2021-03-13T19:19:10+01:00</time>
      </trkpt>
      <trkpt lat="43.98192" lon="0.48805">
        <ele>206</ele>
        <time>2021-03-13T19:19:15+01:00</time>
      </trkpt>
      <trkpt lat="43.98194" lon="0.48753">
        <ele>207</ele>
        <time>2021-03-13T19:19:20+01:00</time>
      </trkpt>
      <trkpt lat="43.98187" lon="0.48636">
        <ele>209</ele>
        <time>2021-03-13T19:19:25+01:00</time>
      </trkpt>
      <trkpt lat="43.9818" lon="0.48569">
        <ele>210</ele>
        <time>2021-03-13T19:19:30+01:00</time>
      </trkpt>
      <trkpt lat="43.98166" lon="0.48517">
        <ele>210</ele>
        <time>2021-03-13T19:19:35+01:00</time>
      </trkpt>
      <trkpt lat="43.98228" lon="0.4839">
        <ele>210</ele>
        <time>2021-03-13T19:19:40+01:00</time>
      </trkpt>
      <trkpt lat="43.98252" lon="0.48331">
        <ele>207</ele>
        <time>2021-03-13T19:19:45+01:00</time>
      </trkpt>
      <trkpt lat="43.98247" lon="0.48258">
        <ele>205</ele>
        <time>2021-03-13T19:19:50+01:00</time>
      </trkpt>
      <trkpt lat="43.98275" lon="0.48235">
        <ele>204</ele>
        <time>2021-03-13T19:19:55+01:00</time>
      </trkpt>
      <trkpt lat="43.98286" lon="0.4818">
        <ele>200</ele>
        <time>2021-03-13T19:20:00+01:00</time>
      </trkpt>
      <trkpt lat="43.98299" lon="0.48066">
        <ele>189</ele>
        <time>2021-03-13T19:20:05+01:00</time>
      </trkpt>
      <trkpt lat="43.98344" lon="0.47764">
        <ele>176</ele>
        <time>2021-03-13T19:20:10+01:00</time>
      </trkpt>
      <trkpt lat="43.9846" lon="0.47752">
        <ele>178</ele>
        <time>2021-03-13T19:20:15+01:00</time>
      </trkpt>
      <trkpt lat="43.98542" lon="0.47753">
        <ele>181</ele>
        <time>2021-03-13T19:20:20+01:00</time>
      </trkpt>
      <trkpt lat="43.98574" lon="0.47576">
        <ele>177</ele>
        <time>2021-03-13T19:20:25+01:00</time>
      </trkpt>
      <trkpt lat="43.98578" lon="0.4754">
        <ele>176</ele>
        <time>2021-03-13T19:20:30+01:00</time>
      </trkpt>
      <trkpt lat="43.98576" lon="0.4753">
        <ele>176</ele>
        <time>2021-03-13T19:20:35+01:00</time>
      </trkpt>
      <trkpt lat="43.9856" lon="0.47499">
        <ele>175</ele>
        <time>2021-03-13T19:20:40+01:00</time>
      </trkpt>
      <trkpt lat="43.98539" lon="0.47467">
        <ele>173</ele>
        <time>2021-03-13T19:20:45+01:00</time>
      </trkpt>
      <trkpt lat="43.98538" lon="0.47425">
        <ele>171</ele>
        <time>2021-03-13T19:20:50+01:00</time>
      </trkpt>
      <trkpt lat="43.98539" lon="0.47375">
        <ele>169</ele>
        <time>2021-03-13T19:20:55+01:00</time>
      </trkpt>
      <trkpt lat="43.98539" lon="0.47375">
        <ele>169</ele>
        <time>2021-03-13T19:21:00+01:00</time>
      </trkpt>
      <trkpt lat="43.98538" lon="0.47364">
        <ele>169</ele>
        <time>2021-03-13T19:21:05+01:00</time>
      </trkpt>
      <trkpt lat="43.98512" lon="0.47299">
        <ele>167</ele>
        <time>2021-03-13T19:21:10+01:00</time>
      </trkpt>
      <trkpt lat="43.98505" lon="0.47276">
        <ele>165</ele>
        <time>2021-03-13T19:21:15+01:00</time>
      </trkpt>
      <trkpt lat="43.985" lon="0.47246">
        <ele>165</ele>
        <time>2021-03-13T19:21:20+01:00</time>
      </trkpt>
      <trkpt lat="43.98489" lon="0.47209">
        <ele>162</ele>
        <time>2021-03-13T19:21:25+01:00</time>
      </trkpt>
      <trkpt lat="43.98465" lon="0.4716">
        <ele>158</ele>
        <time>2021-03-13T19:21:30+01:00</time>
      </trkpt>
      <trkpt lat="43.98447" lon="0.47112">
        <ele>156</ele>
        <time>2021-03-13T19:21:35+01:00</time>
      </trkpt>
      <trkpt lat="43.98422" lon="0.47045">
        <ele>156</ele>
        <time>2021-03-13T19:21:40+01:00</time>
      </trkpt>
      <trkpt lat="43.98369" lon="0.46984">
        <ele>151</ele>
        <time>2021-03-13T19:21:45+01:00</time>
      </trkpt>
      <trkpt lat="43.98337" lon="0.46917">
        <ele>149</ele>
        <time>2021-03-13T19:21:50+01:00</time>
      </trkpt>
      <trkpt lat="43.98318" lon="0.46851">
        <ele>148</ele>
        <time>2021-03-13T19:21:55+01:00</time>
      </trkpt>
      <trkpt lat="43.98305" lon="0.46809">
        <ele>146</ele>
        <time>2021-03-13T19:22:00+01:00</time>
      </trkpt>
      <trkpt lat="43.98303" lon="0.46789">
        <ele>146</ele>
        <time>2021-03-13T19:22:05+01:00</time>
      </trkpt>
      <trkpt lat="43.98262" lon="0.46766">
        <ele>142</ele>
        <time>2021-03-13T19:22:10+01:00</time>
      </trkpt>
      <trkpt lat="43.98196" lon="0.46715">
        <ele>133</ele>
        <time>2021-03-13T19:22:15+01:00</time>
      </trkpt>
      <trkpt lat="43.98184" lon="0.46704">
        <ele>133</ele>
        <time>2021-03-13T19:22:20+01:00</time>
      </trkpt>
      <trkpt lat="43.98176" lon="0.46695">
        <ele>133</ele>
        <time>2021-03-13T19:22:25+01:00</time>
      </trkpt>
      <trkpt lat="43.98162" lon="0.46665">
        <ele>132</ele>
        <time>2021-03-13T19:22:30+01:00</time>
      </trkpt>
      <trkpt lat="43.98119" lon="0.46566">
        <ele>135</ele>
        <time>2021-03-13T19:22:35+01:00</time>
      </trkpt>
      <trkpt lat="43.981" lon="0.46524">
        <ele>139</ele>
        <time>2021-03-13T19:22:40+01:00</time>
      </trkpt>
      <trkpt lat="43.9809" lon="0.4649">
        <ele>140</ele>
        <time>2021-03-13T19:22:45+01:00</time>
      </trkpt>
      <trkpt lat="43.98085" lon="0.4647">
        <ele>142</ele>
        <time>2021-03-13T19:22:50+01:00</time>
      </trkpt>
      <trkpt lat="43.98083" lon="0.46397">
        <ele>144</ele>
        <time>2021-03-13T19:22:55+01:00</time>
      </trkpt>
      <trkpt lat="43.98083" lon="0.46397">
        <ele>144</ele>
        <time>2021-03-13T19:23:00+01:00</time>
      </trkpt>
      <trkpt lat="43.98081" lon="0.46363">
        <ele>145</ele>
        <time>2021-03-13T19:23:05+01:00</time>
      </trkpt>
      <trkpt lat="43.98075" lon="0.46349">
        <ele>147</ele>
        <time>2021-03-13T19:23:10+01:00</time>
      </trkpt>
      <trkpt lat="43.98067" lon="0.46335">
        <ele>149</ele>
        <time>2021-03-13T19:23:15+01:00</time>
      </trkpt>
      <trkpt lat="43.98038" lon="0.46299">
        <ele>157</ele>
        <time>2021-03-13T19:23:20+01:00</time>
      </trkpt>
      <trkpt lat="43.9802" lon="0.46274">
        <ele>161</ele>
        <time>2021-03-13T19:23:25+01:00</time>
      </trkpt>
      <trkpt lat="43.98011" lon="0.46257">
        <ele>163</ele>
        <time>2021-03-13T19:23:30+01:00</time>
      </trkpt>
      <trkpt lat="43.98" lon="0.46224">
        <ele>165</ele>
        <time>2021-03-13T19:23:35+01:00</time>
      </trkpt>
      <trkpt lat="43.9798" lon="0.46179">
        <ele>165</ele>
        <time>2021-03-13T19:23:40+01:00</time>
      </trkpt>
      <trkpt lat="43.9797" lon="0.46207">
        <ele>165</ele>
        <time>2021-03-13T19:23:45+01:00</time>
      </trkpt>
      <trkpt lat="43.97964" lon="0.46224">
        <ele>165</ele>
        <time>2021-03-13T19:23:50+01:00</time>
      </trkpt>
      <trkpt lat="43.97952" lon="0.46217">
        <ele>165</ele>
        <time>2021-03-13T19:23:55+01:00</time>
      </trkpt>
      <trkpt lat="43.97923" lon="0.46198">
        <ele>162</ele>
        <time>2021-03-13T19:24:00+01:00</time>
      </trkpt>
      <trkpt lat="43.97882" lon="0.46178">
        <ele>155</ele>
        <time>2021-03-13T19:24:05+01:00</time>
      </trkpt>
      <trkpt lat="43.9787" lon="0.46168">
        <ele>153</ele>
        <time>2021-03-13T19:24:10+01:00</time>
      </trkpt>
      <trkpt lat="43.97841" lon="0.4613">
        <ele>149</ele>
        <time>2021-03-13T19:24:15+01:00</time>
      </trkpt>
      <trkpt lat="43.97822" lon="0.46122">
        <ele>145</ele>
        <time>2021-03-13T19:24:20+01:00</time>
      </trkpt>
      <trkpt lat="43.978" lon="0.46115">
        <ele>141</ele>
        <time>2021-03-13T19:24:25+01:00</time>
      </trkpt>
      <trkpt lat="43.97787" lon="0.46116">
        <ele>139</ele>
        <time>2021-03-13T19:24:30+01:00</time>
      </trkpt>
      <trkpt lat="43.97769" lon="0.46115">
        <ele>136</ele>
        <time>2021-03-13T19:24:35+01:00</time>
      </trkpt>
      <trkpt lat="43.97739" lon="0.4611">
        <ele>131</ele>
        <time>2021-03-13T19:24:40+01:00</time>
      </trkpt>
      <trkpt lat="43.97725" lon="0.46104">
        <ele>127</ele>
        <time>2021-03-13T19:24:45+01:00</time>
      </trkpt>
      <trkpt lat="43.97702" lon="0.46089">
        <ele>124</ele>
        <time>2021-03-13T19:24:50+01:00</time>
      </trkpt>
      <trkpt lat="43.97632" lon="0.4604">
        <ele>114</ele>
        <time>2021-03-13T19:24:55+01:00</time>
      </trkpt>
      <trkpt lat="43.97601" lon="0.46023">
        <ele>111</ele>
        <time>2021-03-13T19:25:00+01:00</time>
      </trkpt>
      <trkpt lat="43.97572" lon="0.46003">
        <ele>109</ele>
        <time>2021-03-13T19:25:05+01:00</time>
      </trkpt>
      <trkpt lat="43.97516" lon="0.45976">
        <ele>112</ele>
        <time>2021-03-13T19:25:10+01:00</time>
      </trkpt>
      <trkpt lat="43.97497" lon="0.45971">
        <ele>114</ele>
        <time>2021-03-13T19:25:15+01:00</time>
      </trkpt>
      <trkpt lat="43.97473" lon="0.45978">
        <ele>116</ele>
        <time>2021-03-13T19:25:20+01:00</time>
      </trkpt>
      <trkpt lat="43.97449" lon="0.45989">
        <ele>117</ele>
        <time>2021-03-13T19:25:25+01:00</time>
      </trkpt>
      <trkpt lat="43.97403" lon="0.46011">
        <ele>120</ele>
        <time>2021-03-13T19:25:30+01:00</time>
      </trkpt>
      <trkpt lat="43.97403" lon="0.46011">
        <ele>120</ele>
        <time>2021-03-13T19:25:35+01:00</time>
      </trkpt>
      <trkpt lat="43.97374" lon="0.46027">
        <ele>123</ele>
        <time>2021-03-13T19:25:40+01:00</time>
      </trkpt>
      <trkpt lat="43.97349" lon="0.46039">
        <ele>125</ele>
        <time>2021-03-13T19:25:45+01:00</time>
      </trkpt>
      <trkpt lat="43.97271" lon="0.46034">
        <ele>134</ele>
        <time>2021-03-13T19:25:50+01:00</time>
      </trkpt>
      <trkpt lat="43.97252" lon="0.46028">
        <ele>138</ele>
        <time>2021-03-13T19:25:55+01:00</time>
      </trkpt>
      <trkpt lat="43.9724" lon="0.46023">
        <ele>140</ele>
        <time>2021-03-13T19:26:00+01:00</time>
      </trkpt>
      <trkpt lat="43.97227" lon="0.46013">
        <ele>143</ele>
        <time>2021-03-13T19:26:05+01:00</time>
      </trkpt>
      <trkpt lat="43.97199" lon="0.4599">
        <ele>148</ele>
        <time>2021-03-13T19:26:10+01:00</time>
      </trkpt>
      <trkpt lat="43.97161" lon="0.45954">
        <ele>155</ele>
        <time>2021-03-13T19:26:15+01:00</time>
      </trkpt>
      <trkpt lat="43.97142" lon="0.45933">
        <ele>159</ele>
        <time>2021-03-13T19:26:20+01:00</time>
      </trkpt>
      <trkpt lat="43.97128" lon="0.45911">
        <ele>163</ele>
        <time>2021-03-13T19:26:25+01:00</time>
      </trkpt>
      <trkpt lat="43.9712" lon="0.45878">
        <ele>165</ele>
        <time>2021-03-13T19:26:30+01:00</time>
      </trkpt>
      <trkpt lat="43.9712" lon="0.45857">
        <ele>165</ele>
        <time>2021-03-13T19:26:35+01:00</time>
      </trkpt>
      <trkpt lat="43.97119" lon="0.45844">
        <ele>165</ele>
        <time>2021-03-13T19:26:40+01:00</time>
      </trkpt>
      <trkpt lat="43.97121" lon="0.45825">
        <ele>164</ele>
        <time>2021-03-13T19:26:45+01:00</time>
      </trkpt>
      <trkpt lat="43.97123" lon="0.45805">
        <ele>164</ele>
        <time>2021-03-13T19:26:50+01:00</time>
      </trkpt>
      <trkpt lat="43.97122" lon="0.45789">
        <ele>163</ele>
        <time>2021-03-13T19:26:55+01:00</time>
      </trkpt>
      <trkpt lat="43.9711" lon="0.45751">
        <ele>159</ele>
        <time>2021-03-13T19:27:00+01:00</time>
      </trkpt>
      <trkpt lat="43.97076" lon="0.45674">
        <ele>149</ele>
        <time>2021-03-13T19:27:05+01:00</time>
      </trkpt>
      <trkpt lat="43.97072" lon="0.45601">
        <ele>140</ele>
        <time>2021-03-13T19:27:10+01:00</time>
      </trkpt>
      <trkpt lat="43.97078" lon="0.456">
        <ele>140</ele>
        <time>2021-03-13T19:27:15+01:00</time>
      </trkpt>
      <trkpt lat="43.97073" lon="0.45526">
        <ele>127</ele>
        <time>2021-03-13T19:27:20+01:00</time>
      </trkpt>
      <trkpt lat="43.97063" lon="0.45421">
        <ele>116</ele>
        <time>2021-03-13T19:27:25+01:00</time>
      </trkpt>
      <trkpt lat="43.97051" lon="0.45336">
        <ele>106</ele>
        <time>2021-03-13T19:27:30+01:00</time>
      </trkpt>
      <trkpt lat="43.97047" lon="0.45323">
        <ele>105</ele>
        <time>2021-03-13T19:27:35+01:00</time>
      </trkpt>
      <trkpt lat="43.97044" lon="0.45292">
        <ele>103</ele>
        <time>2021-03-13T19:27:40+01:00</time>
      </trkpt>
      <trkpt lat="43.97044" lon="0.45276">
        <ele>102</ele>
        <time>2021-03-13T19:27:45+01:00</time>
      </trkpt>
      <trkpt lat="43.97044" lon="0.45248">
        <ele>102</ele>
        <time>2021-03-13T19:27:50+01:00</time>
      </trkpt>
      <trkpt lat="43.97041" lon="0.45225">
        <ele>102</ele>
        <time>2021-03-13T19:27:55+01:00</time>
      </trkpt>
      <trkpt lat="43.97031" lon="0.45194">
        <ele>102</ele>
        <time>2021-03-13T19:28:00+01:00</time>
      </trkpt>
      <trkpt lat="43.97014" lon="0.45154">
        <ele>102</ele>
        <time>2021-03-13T19:28:05+01:00</time>
      </trkpt>
      <trkpt lat="43.96989" lon="0.45102">
        <ele>103</ele>
        <time>2021-03-13T19:28:10+01:00</time>
      </trkpt>
      <trkpt lat="43.96977" lon="0.45082">
        <ele>104</ele>
        <time>2021-03-13T19:28:15+01:00</time>
      </trkpt>
      <trkpt lat="43.96969" lon="0.45074">
        <ele>104</ele>
        <time>2021-03-13T19:28:20+01:00</time>
      </trkpt>
      <trkpt lat="43.96955" lon="0.45067">
        <ele>105</ele>
        <time>2021-03-13T19:28:25+01:00</time>
      </trkpt>
      <trkpt lat="43.96929" lon="0.45053">
        <ele>105</ele>
        <time>2021-03-13T19:28:30+01:00</time>
      </trkpt>
      <trkpt lat="43.96909" lon="0.45048">
        <ele>105</ele>
        <time>2021-03-13T19:28:35+01:00</time>
      </trkpt>
      <trkpt lat="43.96878" lon="0.45041">
        <ele>105</ele>
        <time>2021-03-13T19:28:40+01:00</time>
      </trkpt>
      <trkpt lat="43.96852" lon="0.45039">
        <ele>104</ele>
        <time>2021-03-13T19:28:45+01:00</time>
      </trkpt>
      <trkpt lat="43.96827" lon="0.45035">
        <ele>104</ele>
        <time>2021-03-13T19:28:50+01:00</time>
      </trkpt>
      <trkpt lat="43.96813" lon="0.45025">
        <ele>104</ele>
        <time>2021-03-13T19:28:55+01:00</time>
      </trkpt>
      <trkpt lat="43.96784" lon="0.4501">
        <ele>108</ele>
        <time>2021-03-13T19:29:00+01:00</time>
      </trkpt>
      <trkpt lat="43.9677" lon="0.45">
        <ele>109</ele>
        <time>2021-03-13T19:29:05+01:00</time>
      </trkpt>
      <trkpt lat="43.9673" lon="0.44938">
        <ele>113</ele>
        <time>2021-03-13T19:29:10+01:00</time>
      </trkpt>
      <trkpt lat="43.96677" lon="0.44854">
        <ele>115</ele>
        <time>2021-03-13T19:29:15+01:00</time>
      </trkpt>
      <trkpt lat="43.96647" lon="0.44803">
        <ele>120</ele>
        <time>2021-03-13T19:29:20+01:00</time>
      </trkpt>
      <trkpt lat="43.96641" lon="0.44797">
        <ele>121</ele>
        <time>2021-03-13T19:29:25+01:00</time>
      </trkpt>
      <trkpt lat="43.96641" lon="0.44797">
        <ele>121</ele>
        <time>2021-03-13T19:29:30+01:00</time>
      </trkpt>
      <trkpt lat="43.96571" lon="0.44727">
        <ele>132</ele>
        <time>2021-03-13T19:29:35+01:00</time>
      </trkpt>
      <trkpt lat="43.96552" lon="0.44703">
        <ele>135</ele>
        <time>2021-03-13T19:29:40+01:00</time>
      </trkpt>
      <trkpt lat="43.96538" lon="0.44676">
        <ele>137</ele>
        <time>2021-03-13T19:29:45+01:00</time>
      </trkpt>
      <trkpt lat="43.96527" lon="0.4465">
        <ele>140</ele>
        <time>2021-03-13T19:29:50+01:00</time>
      </trkpt>
      <trkpt lat="43.96522" lon="0.44646">
        <ele>140</ele>
        <time>2021-03-13T19:29:55+01:00</time>
      </trkpt>
      <trkpt lat="43.96505" lon="0.44641">
        <ele>142</ele>
        <time>2021-03-13T19:30:00+01:00</time>
      </trkpt>
      <trkpt lat="43.96496" lon="0.44645">
        <ele>142</ele>
        <time>2021-03-13T19:30:05+01:00</time>
      </trkpt>
      <trkpt lat="43.96491" lon="0.44649">
        <ele>143</ele>
        <time>2021-03-13T19:30:10+01:00</time>
      </trkpt>
      <trkpt lat="43.96485" lon="0.44648">
        <ele>143</ele>
        <time>2021-03-13T19:30:15+01:00</time>
      </trkpt>
      <trkpt lat="43.96475" lon="0.44642">
        <ele>145</ele>
        <time>2021-03-13T19:30:20+01:00</time>
      </trkpt>
      <trkpt lat="43.96443" lon="0.44618">
        <ele>150</ele>
        <time>2021-03-13T19:30:25+01:00</time>
      </trkpt>
      <trkpt lat="43.96441" lon="0.44611">
        <ele>150</ele>
        <time>2021-03-13T19:30:30+01:00</time>
      </trkpt>
      <trkpt lat="43.96438" lon="0.44598">
        <ele>151</ele>
        <time>2021-03-13T19:30:35+01:00</time>
      </trkpt>
      <trkpt lat="43.96442" lon="0.44576">
        <ele>151</ele>
        <time>2021-03-13T19:30:40+01:00</time>
      </trkpt>
      <trkpt lat="43.96449" lon="0.4454">
        <ele>151</ele>
        <time>2021-03-13T19:30:45+01:00</time>
      </trkpt>
      <trkpt lat="43.96451" lon="0.4452">
        <ele>152</ele>
        <time>2021-03-13T19:30:50+01:00</time>
      </trkpt>
      <trkpt lat="43.96451" lon="0.4447">
        <ele>153</ele>
        <time>2021-03-13T19:30:55+01:00</time>
      </trkpt>
      <trkpt lat="43.96456" lon="0.44442">
        <ele>153</ele>
        <time>2021-03-13T19:31:00+01:00</time>
      </trkpt>
      <trkpt lat="43.96461" lon="0.4441">
        <ele>153</ele>
        <time>2021-03-13T19:31:05+01:00</time>
      </trkpt>
      <trkpt lat="43.96459" lon="0.44394">
        <ele>153</ele>
        <time>2021-03-13T19:31:10+01:00</time>
      </trkpt>
      <trkpt lat="43.96452" lon="0.44381">
        <ele>154</ele>
        <time>2021-03-13T19:31:15+01:00</time>
      </trkpt>
      <trkpt lat="43.96424" lon="0.44356">
        <ele>158</ele>
        <time>2021-03-13T19:31:20+01:00</time>
      </trkpt>
      <trkpt lat="43.9639" lon="0.44324">
        <ele>160</ele>
        <time>2021-03-13T19:31:25+01:00</time>
      </trkpt>
      <trkpt lat="43.96376" lon="0.44304">
        <ele>162</ele>
        <time>2021-03-13T19:31:30+01:00</time>
      </trkpt>
      <trkpt lat="43.96354" lon="0.44267">
        <ele>163</ele>
        <time>2021-03-13T19:31:35+01:00</time>
      </trkpt>
      <trkpt lat="43.96346" lon="0.44245">
        <ele>164</ele>
        <time>2021-03-13T19:31:40+01:00</time>
      </trkpt>
      <trkpt lat="43.96346" lon="0.44228">
        <ele>165</ele>
        <time>2021-03-13T19:31:45+01:00</time>
      </trkpt>
      <trkpt lat="43.96356" lon="0.44209">
        <ele>165</ele>
        <time>2021-03-13T19:31:50+01:00</time>
      </trkpt>
      <trkpt lat="43.96381" lon="0.44172">
        <ele>165</ele>
        <time>2021-03-13T19:31:55+01:00</time>
      </trkpt>
      <trkpt lat="43.96391" lon="0.44143">
        <ele>165</ele>
        <time>2021-03-13T19:32:00+01:00</time>
      </trkpt>
      <trkpt lat="43.96394" lon="0.44123">
        <ele>165</ele>
        <time>2021-03-13T19:32:05+01:00</time>
      </trkpt>
      <trkpt lat="43.96392" lon="0.44115">
        <ele>165</ele>
        <time>2021-03-13T19:32:10+01:00</time>
      </trkpt>
      <trkpt lat="43.96387" lon="0.44117">
        <ele>165</ele>
        <time>2021-03-13T19:32:15+01:00</time>
      </trkpt>
      <trkpt lat="43.96373" lon="0.44109">
        <ele>165</ele>
        <time>2021-03-13T19:32:20+01:00</time>
      </trkpt>
      <trkpt lat="43.96358" lon="0.44098">
        <ele>165</ele>
        <time>2021-03-13T19:32:25+01:00</time>
      </trkpt>
      <trkpt lat="43.96337" lon="0.44087">
        <ele>165</ele>
        <time>2021-03-13T19:32:30+01:00</time>
      </trkpt>
      <trkpt lat="43.9631" lon="0.44076">
        <ele>165</ele>
        <time>2021-03-13T19:32:35+01:00</time>
      </trkpt>
      <trkpt lat="43.9628" lon="0.44068">
        <ele>164</ele>
        <time>2021-03-13T19:32:40+01:00</time>
      </trkpt>
      <trkpt lat="43.96194" lon="0.44043">
        <ele>160</ele>
        <time>2021-03-13T19:32:45+01:00</time>
      </trkpt>
      <trkpt lat="43.96188" lon="0.44041">
        <ele>160</ele>
        <time>2021-03-13T19:32:50+01:00</time>
      </trkpt>
      <trkpt lat="43.96188" lon="0.44041">
        <ele>160</ele>
        <time>2021-03-13T19:32:55+01:00</time>
      </trkpt>
      <trkpt lat="43.96132" lon="0.44025">
        <ele>161</ele>
        <time>2021-03-13T19:33:00+01:00</time>
      </trkpt>
      <trkpt lat="43.96104" lon="0.44017">
        <ele>162</ele>
        <time>2021-03-13T19:33:05+01:00</time>
      </trkpt>
      <trkpt lat="43.96078" lon="0.44016">
        <ele>163</ele>
        <time>2021-03-13T19:33:10+01:00</time>
      </trkpt>
      <trkpt lat="43.9599" lon="0.44037">
        <ele>163</ele>
        <time>2021-03-13T19:33:15+01:00</time>
      </trkpt>
      <trkpt lat="43.95977" lon="0.44043">
        <ele>163</ele>
        <time>2021-03-13T19:33:20+01:00</time>
      </trkpt>
      <trkpt lat="43.95946" lon="0.4406">
        <ele>163</ele>
        <time>2021-03-13T19:33:25+01:00</time>
      </trkpt>
      <trkpt lat="43.95928" lon="0.4407">
        <ele>164</ele>
        <time>2021-03-13T19:33:30+01:00</time>
      </trkpt>
      <trkpt lat="43.95928" lon="0.4406">
        <ele>163</ele>
        <time>2021-03-13T19:33:35+01:00</time>
      </trkpt>
      <trkpt lat="43.95925" lon="0.4399">
        <ele>158</ele>
        <time>2021-03-13T19:33:40+01:00</time>
      </trkpt>
      <trkpt lat="43.95919" lon="0.43911">
        <ele>153</ele>
        <time>2021-03-13T19:33:45+01:00</time>
      </trkpt>
      <trkpt lat="43.95907" lon="0.43724">
        <ele>147</ele>
        <time>2021-03-13T19:33:50+01:00</time>
      </trkpt>
      <trkpt lat="43.95909" lon="0.43641">
        <ele>145</ele>
        <time>2021-03-13T19:33:55+01:00</time>
      </trkpt>
      <trkpt lat="43.95924" lon="0.43616">
        <ele>143</ele>
        <time>2021-03-13T19:34:00+01:00</time>
      </trkpt>
      <trkpt lat="43.95933" lon="0.43584">
        <ele>142</ele>
        <time>2021-03-13T19:34:05+01:00</time>
      </trkpt>
      <trkpt lat="43.95949" lon="0.43478">
        <ele>136</ele>
        <time>2021-03-13T19:34:10+01:00</time>
      </trkpt>
      <trkpt lat="43.95951" lon="0.43398">
        <ele>125</ele>
        <time>2021-03-13T19:34:15+01:00</time>
      </trkpt>
      <trkpt lat="43.95947" lon="0.43394">
        <ele>125</ele>
        <time>2021-03-13T19:34:20+01:00</time>
      </trkpt>
      <trkpt lat="43.95942" lon="0.43393">
        <ele>125</ele>
        <time>2021-03-13T19:34:25+01:00</time>
      </trkpt>
      <trkpt lat="43.95868" lon="0.43397">
        <ele>125</ele>
        <time>2021-03-13T19:34:30+01:00</time>
      </trkpt>
      <trkpt lat="43.95832" lon="0.43397">
        <ele>126</ele>
        <time>2021-03-13T19:34:35+01:00</time>
      </trkpt>
      <trkpt lat="43.95819" lon="0.43396">
        <ele>126</ele>
        <time>2021-03-13T19:34:40+01:00</time>
      </trkpt>
      <trkpt lat="43.95813" lon="0.43393">
        <ele>126</ele>
        <time>2021-03-13T19:34:45+01:00</time>
      </trkpt>
      <trkpt lat="43.95808" lon="0.43379">
        <ele>126</ele>
        <time>2021-03-13T19:34:50+01:00</time>
      </trkpt>
      <trkpt lat="43.95818" lon="0.43372">
        <ele>126</ele>
        <time>2021-03-13T19:34:55+01:00</time>
      </trkpt>
      <trkpt lat="43.95835" lon="0.43362">
        <ele>125</ele>
        <time>2021-03-13T19:35:00+01:00</time>
      </trkpt>
      <trkpt lat="43.95858" lon="0.43355">
        <ele>125</ele>
        <time>2021-03-13T19:35:05+01:00</time>
      </trkpt>
      <trkpt lat="43.95877" lon="0.43351">
        <ele>124</ele>
        <time>2021-03-13T19:35:10+01:00</time>
      </trkpt>
      <trkpt lat="43.95893" lon="0.43344">
        <ele>124</ele>
        <time>2021-03-13T19:35:15+01:00</time>
      </trkpt>
      <trkpt lat="43.95915" lon="0.43316">
        <ele>124</ele>
        <time>2021-03-13T19:35:20+01:00</time>
      </trkpt>
      <trkpt lat="43.95944" lon="0.43287">
        <ele>124</ele>
        <time>2021-03-13T19:35:25+01:00</time>
      </trkpt>
      <trkpt lat="43.95974" lon="0.43267">
        <ele>125</ele>
        <time>2021-03-13T19:35:30+01:00</time>
      </trkpt>
      <trkpt lat="43.96002" lon="0.43245">
        <ele>124</ele>
        <time>2021-03-13T19:35:35+01:00</time>
      </trkpt>
      <trkpt lat="43.96057" lon="0.43213">
        <ele>125</ele>
        <time>2021-03-13T19:35:40+01:00</time>
      </trkpt>
      <trkpt lat="43.9608" lon="0.432">
        <ele>125</ele>
        <time>2021-03-13T19:35:45+01:00</time>
      </trkpt>
      <trkpt lat="43.96097" lon="0.43189">
        <ele>125</ele>
        <time>2021-03-13T19:35:50+01:00</time>
      </trkpt>
      <trkpt lat="43.96108" lon="0.43177">
        <ele>125</ele>
        <time>2021-03-13T19:35:55+01:00</time>
      </trkpt>
      <trkpt lat="43.96132" lon="0.43141">
        <ele>125</ele>
        <time>2021-03-13T19:36:00+01:00</time>
      </trkpt>
      <trkpt lat="43.96159" lon="0.43104">
        <ele>125</ele>
        <time>2021-03-13T19:36:05+01:00</time>
      </trkpt>
      <trkpt lat="43.96191" lon="0.43075">
        <ele>125</ele>
        <time>2021-03-13T19:36:10+01:00</time>
      </trkpt>
      <trkpt lat="43.96224" lon="0.43053">
        <ele>125</ele>
        <time>2021-03-13T19:36:15+01:00</time>
      </trkpt>
      <trkpt lat="43.9625" lon="0.43032">
        <ele>124</ele>
        <time>2021-03-13T19:36:20+01:00</time>
      </trkpt>
      <trkpt lat="43.96271" lon="0.42999">
        <ele>124</ele>
        <time>2021-03-13T19:36:25+01:00</time>
      </trkpt>
      <trkpt lat="43.96292" lon="0.42953">
        <ele>124</ele>
        <time>2021-03-13T19:36:30+01:00</time>
      </trkpt>
      <trkpt lat="43.96299" lon="0.42938">
        <ele>124</ele>
        <time>2021-03-13T19:36:35+01:00</time>
      </trkpt>
      <trkpt lat="43.96306" lon="0.42927">
        <ele>124</ele>
        <time>2021-03-13T19:36:40+01:00</time>
      </trkpt>
      <trkpt lat="43.9634" lon="0.42893">
        <ele>124</ele>
        <time>2021-03-13T19:36:45+01:00</time>
      </trkpt>
      <trkpt lat="43.96358" lon="0.42874">
        <ele>124</ele>
        <time>2021-03-13T19:36:50+01:00</time>
      </trkpt>
      <trkpt lat="43.96398" lon="0.42842">
        <ele>124</ele>
        <time>2021-03-13T19:36:55+01:00</time>
      </trkpt>
      <trkpt lat="43.96403" lon="0.42836">
        <ele>124</ele>
        <time>2021-03-13T19:37:00+01:00</time>
      </trkpt>
      <trkpt lat="43.96414" lon="0.42806">
        <ele>126</ele>
        <time>2021-03-13T19:37:05+01:00</time>
      </trkpt>
      <trkpt lat="43.96454" lon="0.42712">
        <ele>131</ele>
        <time>2021-03-13T19:37:10+01:00</time>
      </trkpt>
      <trkpt lat="43.96465" lon="0.4267">
        <ele>132</ele>
        <time>2021-03-13T19:37:15+01:00</time>
      </trkpt>
      <trkpt lat="43.96479" lon="0.42599">
        <ele>133</ele>
        <time>2021-03-13T19:37:20+01:00</time>
      </trkpt>
      <trkpt lat="43.96488" lon="0.42559">
        <ele>133</ele>
        <time>2021-03-13T19:37:25+01:00</time>
      </trkpt>
      <trkpt lat="43.96487" lon="0.42523">
        <ele>133</ele>
        <time>2021-03-13T19:37:30+01:00</time>
      </trkpt>
      <trkpt lat="43.96477" lon="0.42486">
        <ele>133</ele>
        <time>2021-03-13T19:37:35+01:00</time>
      </trkpt>
      <trkpt lat="43.96476" lon="0.42473">
        <ele>133</ele>
        <time>2021-03-13T19:37:40+01:00</time>
      </trkpt>
      <trkpt lat="43.96467" lon="0.42425">
        <ele>132</ele>
        <time>2021-03-13T19:37:45+01:00</time>
      </trkpt>
      <trkpt lat="43.96453" lon="0.42375">
        <ele>130</ele>
        <time>2021-03-13T19:37:50+01:00</time>
      </trkpt>
      <trkpt lat="43.9645" lon="0.42353">
        <ele>129</ele>
        <time>2021-03-13T19:37:55+01:00</time>
      </trkpt>
      <trkpt lat="43.96433" lon="0.42298">
        <ele>128</ele>
        <time>2021-03-13T19:38:00+01:00</time>
      </trkpt>
      <trkpt lat="43.96412" lon="0.42215">
        <ele>125</ele>
        <time>2021-03-13T19:38:05+01:00</time>
      </trkpt>
      <trkpt lat="43.96361" lon="0.42086">
        <ele>125</ele>
        <time>2021-03-13T19:38:10+01:00</time>
      </trkpt>
      <trkpt lat="43.96355" lon="0.42051">
        <ele>125</ele>
        <time>2021-03-13T19:38:15+01:00</time>
      </trkpt>
      <trkpt lat="43.96354" lon="0.42021">
        <ele>126</ele>
        <time>2021-03-13T19:38:20+01:00</time>
      </trkpt>
      <trkpt lat="43.9635" lon="0.42005">
        <ele>127</ele>
        <time>2021-03-13T19:38:25+01:00</time>
      </trkpt>
      <trkpt lat="43.9634" lon="0.41974">
        <ele>129</ele>
        <time>2021-03-13T19:38:30+01:00</time>
      </trkpt>
      <trkpt lat="43.96334" lon="0.4195">
        <ele>130</ele>
        <time>2021-03-13T19:38:35+01:00</time>
      </trkpt>
      <trkpt lat="43.96332" lon="0.41923">
        <ele>133</ele>
        <time>2021-03-13T19:38:40+01:00</time>
      </trkpt>
      <trkpt lat="43.96331" lon="0.41874">
        <ele>137</ele>
        <time>2021-03-13T19:38:45+01:00</time>
      </trkpt>
      <trkpt lat="43.96329" lon="0.41853">
        <ele>137</ele>
        <time>2021-03-13T19:38:50+01:00</time>
      </trkpt>
      <trkpt lat="43.96329" lon="0.41853">
        <ele>137</ele>
        <time>2021-03-13T19:38:55+01:00</time>
      </trkpt>
      <trkpt lat="43.96322" lon="0.41729">
        <ele>137</ele>
        <time>2021-03-13T19:39:00+01:00</time>
      </trkpt>
      <trkpt lat="43.9632" lon="0.41686">
        <ele>138</ele>
        <time>2021-03-13T19:39:05+01:00</time>
      </trkpt>
      <trkpt lat="43.96322" lon="0.4163">
        <ele>141</ele>
        <time>2021-03-13T19:39:10+01:00</time>
      </trkpt>
      <trkpt lat="43.96329" lon="0.41591">
        <ele>143</ele>
        <time>2021-03-13T19:39:15+01:00</time>
      </trkpt>
      <trkpt lat="43.96334" lon="0.41566">
        <ele>143</ele>
        <time>2021-03-13T19:39:20+01:00</time>
      </trkpt>
      <trkpt lat="43.96335" lon="0.41547">
        <ele>143</ele>
        <time>2021-03-13T19:39:25+01:00</time>
      </trkpt>
      <trkpt lat="43.96351" lon="0.41503">
        <ele>144</ele>
        <time>2021-03-13T19:39:30+01:00</time>
      </trkpt>
      <trkpt lat="43.96364" lon="0.41476">
        <ele>145</ele>
        <time>2021-03-13T19:39:35+01:00</time>
      </trkpt>
      <trkpt lat="43.96372" lon="0.41454">
        <ele>146</ele>
        <time>2021-03-13T19:39:40+01:00</time>
      </trkpt>
      <trkpt lat="43.96373" lon="0.4144">
        <ele>145</ele>
        <time>2021-03-13T19:39:45+01:00</time>
      </trkpt>
      <trkpt lat="43.96369" lon="0.41419">
        <ele>145</ele>
        <time>2021-03-13T19:39:50+01:00</time>
      </trkpt>
      <trkpt lat="43.96353" lon="0.41369">
        <ele>147</ele>
        <time>2021-03-13T19:39:55+01:00</time>
      </trkpt>
      <trkpt lat="43.96337" lon="0.41287">
        <ele>155</ele>
        <time>2021-03-13T19:40:00+01:00</time>
      </trkpt>
      <trkpt lat="43.96323" lon="0.41216">
        <ele>159</ele>
        <time>2021-03-13T19:40:05+01:00</time>
      </trkpt>
      <trkpt lat="43.9631" lon="0.41157">
        <ele>163</ele>
        <time>2021-03-13T19:40:10+01:00</time>
      </trkpt>
      <trkpt lat="43.96306" lon="0.41093">
        <ele>166</ele>
        <time>2021-03-13T19:40:15+01:00</time>
      </trkpt>
      <trkpt lat="43.96279" lon="0.40988">
        <ele>172</ele>
        <time>2021-03-13T19:40:20+01:00</time>
      </trkpt>
      <trkpt lat="43.96258" lon="0.40907">
        <ele>175</ele>
        <time>2021-03-13T19:40:25+01:00</time>
      </trkpt>
      <trkpt lat="43.96245" lon="0.40852">
        <ele>175</ele>
        <time>2021-03-13T19:40:30+01:00</time>
      </trkpt>
      <trkpt lat="43.96235" lon="0.40804">
        <ele>175</ele>
        <time>2021-03-13T19:40:35+01:00</time>
      </trkpt>
      <trkpt lat="43.96225" lon="0.40775">
        <ele>175</ele>
        <time>2021-03-13T19:40:40+01:00</time>
      </trkpt>
      <trkpt lat="43.9621" lon="0.40716">
        <ele>173</ele>
        <time>2021-03-13T19:40:45+01:00</time>
      </trkpt>
      <trkpt lat="43.96198" lon="0.40654">
        <ele>167</ele>
        <time>2021-03-13T19:40:50+01:00</time>
      </trkpt>
      <trkpt lat="43.96176" lon="0.40581">
        <ele>161</ele>
        <time>2021-03-13T19:40:55+01:00</time>
      </trkpt>
      <trkpt lat="43.96157" lon="0.40512">
        <ele>156</ele>
        <time>2021-03-13T19:41:00+01:00</time>
      </trkpt>
      <trkpt lat="43.96142" lon="0.40406">
        <ele>152</ele>
        <time>2021-03-13T19:41:05+01:00</time>
      </trkpt>
      <trkpt lat="43.96123" lon="0.40306">
        <ele>149</ele>
        <time>2021-03-13T19:41:10+01:00</time>
      </trkpt>
      <trkpt lat="43.96092" lon="0.40186">
        <ele>145</ele>
        <time>2021-03-13T19:41:15+01:00</time>
      </trkpt>
      <trkpt lat="43.9608" lon="0.4012">
        <ele>145</ele>
        <time>2021-03-13T19:41:20+01:00</time>
      </trkpt>
      <trkpt lat="43.9607" lon="0.40079">
        <ele>145</ele>
        <time>2021-03-13T19:41:25+01:00</time>
      </trkpt>
      <trkpt lat="43.96067" lon="0.40076">
        <ele>144</ele>
        <time>2021-03-13T19:41:30+01:00</time>
      </trkpt>
      <trkpt lat="43.96069" lon="0.40072">
        <ele>144</ele>
        <time>2021-03-13T19:41:35+01:00</time>
      </trkpt>
      <trkpt lat="43.96068" lon="0.40056">
        <ele>145</ele>
        <time>2021-03-13T19:41:40+01:00</time>
      </trkpt>
      <trkpt lat="43.96045" lon="0.39932">
        <ele>144</ele>
        <time>2021-03-13T19:41:45+01:00</time>
      </trkpt>
      <trkpt lat="43.96016" lon="0.39796">
        <ele>145</ele>
        <time>2021-03-13T19:41:50+01:00</time>
      </trkpt>
      <trkpt lat="43.96009" lon="0.39754">
        <ele>144</ele>
        <time>2021-03-13T19:41:55+01:00</time>
      </trkpt>
      <trkpt lat="43.96003" lon="0.3969">
        <ele>145</ele>
        <time>2021-03-13T19:42:00+01:00</time>
      </trkpt>
      <trkpt lat="43.95994" lon="0.39591">
        <ele>143</ele>
        <time>2021-03-13T19:42:05+01:00</time>
      </trkpt>
      <trkpt lat="43.95991" lon="0.39558">
        <ele>143</ele>
        <time>2021-03-13T19:42:10+01:00</time>
      </trkpt>
      <trkpt lat="43.95986" lon="0.39535">
        <ele>143</ele>
        <time>2021-03-13T19:42:15+01:00</time>
      </trkpt>
      <trkpt lat="43.95978" lon="0.39453">
        <ele>143</ele>
        <time>2021-03-13T19:42:20+01:00</time>
      </trkpt>
      <trkpt lat="43.95967" lon="0.39385">
        <ele>143</ele>
        <time>2021-03-13T19:42:25+01:00</time>
      </trkpt>
      <trkpt lat="43.95965" lon="0.39335">
        <ele>142</ele>
        <time>2021-03-13T19:42:30+01:00</time>
      </trkpt>
      <trkpt lat="43.95969" lon="0.39265">
        <ele>140</ele>
        <time>2021-03-13T19:42:35+01:00</time>
      </trkpt>
      <trkpt lat="43.95969" lon="0.39265">
        <ele>140</ele>
        <time>2021-03-13T19:42:40+01:00</time>
      </trkpt>
      <trkpt lat="43.9597" lon="0.39213">
        <ele>141</ele>
        <time>2021-03-13T19:42:45+01:00</time>
      </trkpt>
      <trkpt lat="43.95971" lon="0.39176">
        <ele>140</ele>
        <time>2021-03-13T19:42:50+01:00</time>
      </trkpt>
      <trkpt lat="43.95968" lon="0.39154">
        <ele>141</ele>
        <time>2021-03-13T19:42:55+01:00</time>
      </trkpt>
      <trkpt lat="43.9596" lon="0.39088">
        <ele>141</ele>
        <time>2021-03-13T19:43:00+01:00</time>
      </trkpt>
      <trkpt lat="43.95957" lon="0.39047">
        <ele>141</ele>
        <time>2021-03-13T19:43:05+01:00</time>
      </trkpt>
      <trkpt lat="43.95947" lon="0.39005">
        <ele>140</ele>
        <time>2021-03-13T19:43:10+01:00</time>
      </trkpt>
      <trkpt lat="43.95944" lon="0.38988">
        <ele>139</ele>
        <time>2021-03-13T19:43:15+01:00</time>
      </trkpt>
      <trkpt lat="43.95941" lon="0.38938">
        <ele>133</ele>
        <time>2021-03-13T19:43:20+01:00</time>
      </trkpt>
      <trkpt lat="43.95935" lon="0.3886">
        <ele>128</ele>
        <time>2021-03-13T19:43:25+01:00</time>
      </trkpt>
      <trkpt lat="43.95922" lon="0.38718">
        <ele>121</ele>
        <time>2021-03-13T19:43:30+01:00</time>
      </trkpt>
      <trkpt lat="43.95916" lon="0.38629">
        <ele>119</ele>
        <time>2021-03-13T19:43:35+01:00</time>
      </trkpt>
      <trkpt lat="43.95915" lon="0.38592">
        <ele>117</ele>
        <time>2021-03-13T19:43:40+01:00</time>
      </trkpt>
      <trkpt lat="43.95917" lon="0.38569">
        <ele>117</ele>
        <time>2021-03-13T19:43:45+01:00</time>
      </trkpt>
      <trkpt lat="43.95927" lon="0.38502">
        <ele>115</ele>
        <time>2021-03-13T19:43:50+01:00</time>
      </trkpt>
      <trkpt lat="43.95928" lon="0.38462">
        <ele>114</ele>
        <time>2021-03-13T19:43:55+01:00</time>
      </trkpt>
      <trkpt lat="43.95929" lon="0.38394">
        <ele>112</ele>
        <time>2021-03-13T19:44:00+01:00</time>
      </trkpt>
      <trkpt lat="43.95928" lon="0.38349">
        <ele>110</ele>
        <time>2021-03-13T19:44:05+01:00</time>
      </trkpt>
      <trkpt lat="43.95922" lon="0.383">
        <ele>108</ele>
        <time>2021-03-13T19:44:10+01:00</time>
      </trkpt>
      <trkpt lat="43.95922" lon="0.383">
        <ele>108</ele>
        <time>2021-03-13T19:44:15+01:00</time>
      </trkpt>
      <trkpt lat="43.95913" lon="0.38279">
        <ele>107</ele>
        <time>2021-03-13T19:44:20+01:00</time>
      </trkpt>
      <trkpt lat="43.95921" lon="0.38257">
        <ele>106</ele>
        <time>2021-03-13T19:44:25+01:00</time>
      </trkpt>
      <trkpt lat="43.95892" lon="0.38241">
        <ele>105</ele>
        <time>2021-03-13T19:44:30+01:00</time>
      </trkpt>
      <trkpt lat="43.95845" lon="0.38168">
        <ele>100</ele>
        <time>2021-03-13T19:44:35+01:00</time>
      </trkpt>
      <trkpt lat="43.95772" lon="0.38065">
        <ele>89</ele>
        <time>2021-03-13T19:44:40+01:00</time>
      </trkpt>
      <trkpt lat="43.95709" lon="0.38028">
        <ele>79</ele>
        <time>2021-03-13T19:44:45+01:00</time>
      </trkpt>
      <trkpt lat="43.95639" lon="0.38012">
        <ele>76</ele>
        <time>2021-03-13T19:44:50+01:00</time>
      </trkpt>
      <trkpt lat="43.95684" lon="0.37809">
        <ele>77</ele>
        <time>2021-03-13T19:44:55+01:00</time>
      </trkpt>
      <trkpt lat="43.95703" lon="0.37709">
        <ele>79</ele>
        <time>2021-03-13T19:45:00+01:00</time>
      </trkpt>
      <trkpt lat="43.9571" lon="0.37645">
        <ele>79</ele>
        <time>2021-03-13T19:45:05+01:00</time>
      </trkpt>
      <trkpt lat="43.95681" lon="0.37595">
        <ele>81</ele>
        <time>2021-03-13T19:45:10+01:00</time>
      </trkpt>
      <trkpt lat="43.9572" lon="0.37511">
        <ele>82</ele>
        <time>2021-03-13T19:45:15+01:00</time>
      </trkpt>
      <trkpt lat="43.95761" lon="0.37365">
        <ele>83</ele>
        <time>2021-03-13T19:45:20+01:00</time>
      </trkpt>
      <trkpt lat="43.9576" lon="0.37353">
        <ele>83</ele>
        <time>2021-03-13T19:45:25+01:00</time>
      </trkpt>
      <trkpt lat="43.95759" lon="0.37333">
        <ele>84</ele>
        <time>2021-03-13T19:45:30+01:00</time>
      </trkpt>
      <trkpt lat="43.95758" lon="0.37299">
        <ele>84</ele>
        <time>2021-03-13T19:45:35+01:00</time>
      </trkpt>
      <trkpt lat="43.95757" lon="0.37238">
        <ele>85</ele>
        <time>2021-03-13T19:45:40+01:00</time>
      </trkpt>
      <trkpt lat="43.95758" lon="0.37214">
        <ele>85</ele>
        <time>2021-03-13T19:45:45+01:00</time>
      </trkpt>
      <trkpt lat="43.95752" lon="0.37193">
        <ele>85</ele>
        <time>2021-03-13T19:45:50+01:00</time>
      </trkpt>
      <trkpt lat="43.95746" lon="0.37173">
        <ele>85</ele>
        <time>2021-03-13T19:45:55+01:00</time>
      </trkpt>
      <trkpt lat="43.95743" lon="0.37143">
        <ele>84</ele>
        <time>2021-03-13T19:46:00+01:00</time>
      </trkpt>
      <trkpt lat="43.95748" lon="0.37086">
        <ele>82</ele>
        <time>2021-03-13T19:46:05+01:00</time>
      </trkpt>
      <trkpt lat="43.95747" lon="0.37003">
        <ele>78</ele>
        <time>2021-03-13T19:46:10+01:00</time>
      </trkpt>
      <trkpt lat="43.95733" lon="0.36991">
        <ele>78</ele>
        <time>2021-03-13T19:46:15+01:00</time>
      </trkpt>
      <trkpt lat="43.95726" lon="0.36966">
        <ele>76</ele>
        <time>2021-03-13T19:46:20+01:00</time>
      </trkpt>
      <trkpt lat="43.95715" lon="0.36949">
        <ele>76</ele>
        <time>2021-03-13T19:46:25+01:00</time>
      </trkpt>
      <trkpt lat="43.95688" lon="0.3693">
        <ele>75</ele>
        <time>2021-03-13T19:46:30+01:00</time>
      </trkpt>
      <trkpt lat="43.95679" lon="0.36923">
        <ele>75</ele>
        <time>2021-03-13T19:46:35+01:00</time>
      </trkpt>
      <trkpt lat="43.95675" lon="0.36901">
        <ele>72</ele>
        <time>2021-03-13T19:46:40+01:00</time>
      </trkpt>
      <trkpt lat="43.95678" lon="0.36863">
        <ele>70</ele>
        <time>2021-03-13T19:46:45+01:00</time>
      </trkpt>
      <trkpt lat="43.95678" lon="0.36863">
        <ele>70</ele>
        <time>2021-03-13T19:46:50+01:00</time>
      </trkpt>
      <trkpt lat="43.95679" lon="0.36837">
        <ele>70</ele>
        <time>2021-03-13T19:46:55+01:00</time>
      </trkpt>
      <trkpt lat="43.95653" lon="0.36837">
        <ele>70</ele>
        <time>2021-03-13T19:47:00+01:00</time>
      </trkpt>
      <trkpt lat="43.95637" lon="0.36834">
        <ele>70</ele>
        <time>2021-03-13T19:47:05+01:00</time>
      </trkpt>
      <trkpt lat="43.9561" lon="0.36832">
        <ele>70</ele>
        <time>2021-03-13T19:47:10+01:00</time>
      </trkpt>
      <trkpt lat="43.95592" lon="0.36827">
        <ele>70</ele>
        <time>2021-03-13T19:47:15+01:00</time>
      </trkpt>
      <trkpt lat="43.95577" lon="0.36815">
        <ele>70</ele>
        <time>2021-03-13T19:47:20+01:00</time>
      </trkpt>
      <trkpt lat="43.95567" lon="0.36796">
        <ele>70</ele>
        <time>2021-03-13T19:47:25+01:00</time>
      </trkpt>
      <trkpt lat="43.95562" lon="0.36773">
        <ele>70</ele>
        <time>2021-03-13T19:47:30+01:00</time>
      </trkpt>
      <trkpt lat="43.95558" lon="0.36702">
        <ele>71</ele>
        <time>2021-03-13T19:47:35+01:00</time>
      </trkpt>
      <trkpt lat="43.95558" lon="0.36698">
        <ele>71</ele>
        <time>2021-03-13T19:47:40+01:00</time>
      </trkpt>
      <trkpt lat="43.95558" lon="0.36698">
        <ele>71</ele>
        <time>2021-03-13T19:47:45+01:00</time>
      </trkpt>
      <trkpt lat="43.95555" lon="0.36651">
        <ele>72</ele>
        <time>2021-03-13T19:47:50+01:00</time>
      </trkpt>
      <trkpt lat="43.95551" lon="0.36625">
        <ele>72</ele>
        <time>2021-03-13T19:47:55+01:00</time>
      </trkpt>
      <trkpt lat="43.9554" lon="0.36592">
        <ele>71</ele>
        <time>2021-03-13T19:48:00+01:00</time>
      </trkpt>
      <trkpt lat="43.95506" lon="0.36542">
        <ele>71</ele>
        <time>2021-03-13T19:48:05+01:00</time>
      </trkpt>
      <trkpt lat="43.95469" lon="0.36489">
        <ele>71</ele>
        <time>2021-03-13T19:48:10+01:00</time>
      </trkpt>
      <trkpt lat="43.95459" lon="0.36481">
        <ele>71</ele>
        <time>2021-03-13T19:48:15+01:00</time>
      </trkpt>
      <trkpt lat="43.95459" lon="0.36481">
        <ele>71</ele>
        <time>2021-03-13T19:48:20+01:00</time>
      </trkpt>
      <trkpt lat="43.95447" lon="0.36472">
        <ele>71</ele>
        <time>2021-03-13T19:48:25+01:00</time>
      </trkpt>
      <trkpt lat="43.95426" lon="0.36462">
        <ele>71</ele>
        <time>2021-03-13T19:48:30+01:00</time>
      </trkpt>
      <trkpt lat="43.95369" lon="0.36443">
        <ele>71</ele>
        <time>2021-03-13T19:48:35+01:00</time>
      </trkpt>
      <trkpt lat="43.95355" lon="0.36437">
        <ele>71</ele>
        <time>2021-03-13T19:48:40+01:00</time>
      </trkpt>
      <trkpt lat="43.95355" lon="0.36437">
        <ele>71</ele>
        <time>2021-03-13T19:48:45+01:00</time>
      </trkpt>
      <trkpt lat="43.95352" lon="0.36435">
        <ele>71</ele>
        <time>2021-03-13T19:48:50+01:00</time>
      </trkpt>
      <trkpt lat="43.95349" lon="0.36429">
        <ele>71</ele>
        <time>2021-03-13T19:48:55+01:00</time>
      </trkpt>
      <trkpt lat="43.95348" lon="0.3641">
        <ele>71</ele>
        <time>2021-03-13T19:49:00+01:00</time>
      </trkpt>
      <trkpt lat="43.95358" lon="0.36351">
        <ele>72</ele>
        <time>2021-03-13T19:49:05+01:00</time>
      </trkpt>
      <trkpt lat="43.95368" lon="0.36309">
        <ele>73</ele>
        <time>2021-03-13T19:49:10+01:00</time>
      </trkpt>
      <trkpt lat="43.95373" lon="0.36298">
        <ele>73</ele>
        <time>2021-03-13T19:49:15+01:00</time>
      </trkpt>
      <trkpt lat="43.95373" lon="0.36298">
        <ele>73</ele>
        <time>2021-03-13T19:49:20+01:00</time>
      </trkpt>
      <trkpt lat="43.95382" lon="0.36282">
        <ele>73</ele>
        <time>2021-03-13T19:49:25+01:00</time>
      </trkpt>
      <trkpt lat="43.95396" lon="0.36257">
        <ele>74</ele>
        <time>2021-03-13T19:49:30+01:00</time>
      </trkpt>
      <trkpt lat="43.95344" lon="0.36135">
        <ele>79</ele>
        <time>2021-03-13T19:49:35+01:00</time>
      </trkpt>
      <trkpt lat="43.95258" lon="0.35941">
        <ele>86</ele>
        <time>2021-03-13T19:49:40+01:00</time>
      </trkpt>
      <trkpt lat="43.95224" lon="0.35909">
        <ele>87</ele>
        <time>2021-03-13T19:49:45+01:00</time>
      </trkpt>
      <trkpt lat="43.95212" lon="0.35878">
        <ele>87</ele>
        <time>2021-03-13T19:49:50+01:00</time>
      </trkpt>
      <trkpt lat="43.95207" lon="0.3584">
        <ele>88</ele>
        <time>2021-03-13T19:49:55+01:00</time>
      </trkpt>
      <trkpt lat="43.95149" lon="0.35786">
        <ele>88</ele>
        <time>2021-03-13T19:50:00+01:00</time>
      </trkpt>
      <trkpt lat="43.95074" lon="0.35722">
        <ele>89</ele>
        <time>2021-03-13T19:50:05+01:00</time>
      </trkpt>
      <trkpt lat="43.95074" lon="0.35722">
        <ele>89</ele>
        <time>2021-03-13T19:50:10+01:00</time>
      </trkpt>
      <trkpt lat="43.95046" lon="0.35702">
        <ele>88</ele>
        <time>2021-03-13T19:50:15+01:00</time>
      </trkpt>
      <trkpt lat="43.95013" lon="0.35674">
        <ele>88</ele>
        <time>2021-03-13T19:50:20+01:00</time>
      </trkpt>
      <trkpt lat="43.94976" lon="0.35643">
        <ele>88</ele>
        <time>2021-03-13T19:50:25+01:00</time>
      </trkpt>
      <trkpt lat="43.94983" lon="0.35614">
        <ele>89</ele>
        <time>2021-03-13T19:50:30+01:00</time>
      </trkpt>
      <trkpt lat="43.9496" lon="0.35593">
        <ele>89</ele>
        <time>2021-03-13T19:50:35+01:00</time>
      </trkpt>
      <trkpt lat="43.94941" lon="0.35563">
        <ele>89</ele>
        <time>2021-03-13T19:50:40+01:00</time>
      </trkpt>
      <trkpt lat="43.9493" lon="0.35542">
        <ele>89</ele>
        <time>2021-03-13T19:50:45+01:00</time>
      </trkpt>
      <trkpt lat="43.94924" lon="0.35523">
        <ele>90</ele>
        <time>2021-03-13T19:50:50+01:00</time>
      </trkpt>
      <trkpt lat="43.94917" lon="0.35482">
        <ele>92</ele>
        <time>2021-03-13T19:50:55+01:00</time>
      </trkpt>
      <trkpt lat="43.94911" lon="0.35458">
        <ele>93</ele>
        <time>2021-03-13T19:51:00+01:00</time>
      </trkpt>
      <trkpt lat="43.94903" lon="0.35442">
        <ele>94</ele>
        <time>2021-03-13T19:51:05+01:00</time>
      </trkpt>
      <trkpt lat="43.9489" lon="0.35426">
        <ele>95</ele>
        <time>2021-03-13T19:51:10+01:00</time>
      </trkpt>
      <trkpt lat="43.94871" lon="0.35409">
        <ele>96</ele>
        <time>2021-03-13T19:51:15+01:00</time>
      </trkpt>
      <trkpt lat="43.94838" lon="0.35383">
        <ele>99</ele>
        <time>2021-03-13T19:51:20+01:00</time>
      </trkpt>
      <trkpt lat="43.94802" lon="0.35349">
        <ele>105</ele>
        <time>2021-03-13T19:51:25+01:00</time>
      </trkpt>
      <trkpt lat="43.94788" lon="0.35335">
        <ele>107</ele>
        <time>2021-03-13T19:51:30+01:00</time>
      </trkpt>
      <trkpt lat="43.94774" lon="0.35314">
        <ele>109</ele>
        <time>2021-03-13T19:51:35+01:00</time>
      </trkpt>
      <trkpt lat="43.94765" lon="0.3529">
        <ele>110</ele>
        <time>2021-03-13T19:51:40+01:00</time>
      </trkpt>
      <trkpt lat="43.94755" lon="0.35256">
        <ele>110</ele>
        <time>2021-03-13T19:51:45+01:00</time>
      </trkpt>
      <trkpt lat="43.94755" lon="0.35228">
        <ele>111</ele>
        <time>2021-03-13T19:51:50+01:00</time>
      </trkpt>
      <trkpt lat="43.9476" lon="0.35194">
        <ele>111</ele>
        <time>2021-03-13T19:51:55+01:00</time>
      </trkpt>
      <trkpt lat="43.94763" lon="0.35123">
        <ele>112</ele>
        <time>2021-03-13T19:52:00+01:00</time>
      </trkpt>
      <trkpt lat="43.94764" lon="0.35058">
        <ele>111</ele>
        <time>2021-03-13T19:52:05+01:00</time>
      </trkpt>
      <trkpt lat="43.94747" lon="0.34919">
        <ele>107</ele>
        <time>2021-03-13T19:52:10+01:00</time>
      </trkpt>
      <trkpt lat="43.94723" lon="0.34763">
        <ele>107</ele>
        <time>2021-03-13T19:52:15+01:00</time>
      </trkpt>
      <trkpt lat="43.94721" lon="0.34756">
        <ele>107</ele>
        <time>2021-03-13T19:52:20+01:00</time>
      </trkpt>
      <trkpt lat="43.94721" lon="0.34756">
        <ele>107</ele>
        <time>2021-03-13T19:52:25+01:00</time>
      </trkpt>
      <trkpt lat="43.94697" lon="0.3465">
        <ele>108</ele>
        <time>2021-03-13T19:52:30+01:00</time>
      </trkpt>
      <trkpt lat="43.94671" lon="0.34592">
        <ele>107</ele>
        <time>2021-03-13T19:52:35+01:00</time>
      </trkpt>
      <trkpt lat="43.94654" lon="0.34561">
        <ele>106</ele>
        <time>2021-03-13T19:52:40+01:00</time>
      </trkpt>
      <trkpt lat="43.94644" lon="0.34551">
        <ele>106</ele>
        <time>2021-03-13T19:52:45+01:00</time>
      </trkpt>
      <trkpt lat="43.94632" lon="0.34544">
        <ele>105</ele>
        <time>2021-03-13T19:52:50+01:00</time>
      </trkpt>
      <trkpt lat="43.94569" lon="0.34523">
        <ele>108</ele>
        <time>2021-03-13T19:52:55+01:00</time>
      </trkpt>
      <trkpt lat="43.94543" lon="0.3451">
        <ele>110</ele>
        <time>2021-03-13T19:53:00+01:00</time>
      </trkpt>
      <trkpt lat="43.94521" lon="0.34488">
        <ele>112</ele>
        <time>2021-03-13T19:53:05+01:00</time>
      </trkpt>
      <trkpt lat="43.94504" lon="0.34463">
        <ele>114</ele>
        <time>2021-03-13T19:53:10+01:00</time>
      </trkpt>
      <trkpt lat="43.94489" lon="0.34434">
        <ele>115</ele>
        <time>2021-03-13T19:53:15+01:00</time>
      </trkpt>
      <trkpt lat="43.94484" lon="0.34405">
        <ele>116</ele>
        <time>2021-03-13T19:53:20+01:00</time>
      </trkpt>
      <trkpt lat="43.94478" lon="0.34346">
        <ele>116</ele>
        <time>2021-03-13T19:53:25+01:00</time>
      </trkpt>
      <trkpt lat="43.94473" lon="0.34317">
        <ele>117</ele>
        <time>2021-03-13T19:53:30+01:00</time>
      </trkpt>
      <trkpt lat="43.94449" lon="0.34221">
        <ele>116</ele>
        <time>2021-03-13T19:53:35+01:00</time>
      </trkpt>
      <trkpt lat="43.94421" lon="0.34111">
        <ele>114</ele>
        <time>2021-03-13T19:53:40+01:00</time>
      </trkpt>
      <trkpt lat="43.94399" lon="0.34024">
        <ele>111</ele>
        <time>2021-03-13T19:53:45+01:00</time>
      </trkpt>
      <trkpt lat="43.94391" lon="0.34">
        <ele>112</ele>
        <time>2021-03-13T19:53:50+01:00</time>
      </trkpt>
      <trkpt lat="43.94379" lon="0.33977">
        <ele>109</ele>
        <time>2021-03-13T19:53:55+01:00</time>
      </trkpt>
      <trkpt lat="43.94362" lon="0.33946">
        <ele>108</ele>
        <time>2021-03-13T19:54:00+01:00</time>
      </trkpt>
      <trkpt lat="43.94347" lon="0.33915">
        <ele>108</ele>
        <time>2021-03-13T19:54:05+01:00</time>
      </trkpt>
      <trkpt lat="43.94338" lon="0.33892">
        <ele>108</ele>
        <time>2021-03-13T19:54:10+01:00</time>
      </trkpt>
      <trkpt lat="43.94334" lon="0.33874">
        <ele>109</ele>
        <time>2021-03-13T19:54:15+01:00</time>
      </trkpt>
      <trkpt lat="43.94326" lon="0.33814">
        <ele>111</ele>
        <time>2021-03-13T19:54:20+01:00</time>
      </trkpt>
      <trkpt lat="43.94316" lon="0.33773">
        <ele>112</ele>
        <time>2021-03-13T19:54:25+01:00</time>
      </trkpt>
      <trkpt lat="43.94316" lon="0.33769">
        <ele>112</ele>
        <time>2021-03-13T19:54:30+01:00</time>
      </trkpt>
      <trkpt lat="43.94316" lon="0.33769">
        <ele>112</ele>
        <time>2021-03-13T19:54:35+01:00</time>
      </trkpt>
      <trkpt lat="43.94295" lon="0.3364">
        <ele>117</ele>
        <time>2021-03-13T19:54:40+01:00</time>
      </trkpt>
      <trkpt lat="43.94288" lon="0.33576">
        <ele>119</ele>
        <time>2021-03-13T19:54:45+01:00</time>
      </trkpt>
      <trkpt lat="43.94289" lon="0.33534">
        <ele>121</ele>
        <time>2021-03-13T19:54:50+01:00</time>
      </trkpt>
      <trkpt lat="43.94301" lon="0.33425">
        <ele>127</ele>
        <time>2021-03-13T19:54:55+01:00</time>
      </trkpt>
      <trkpt lat="43.94305" lon="0.33364">
        <ele>131</ele>
        <time>2021-03-13T19:55:00+01:00</time>
      </trkpt>
      <trkpt lat="43.94306" lon="0.33317">
        <ele>134</ele>
        <time>2021-03-13T19:55:05+01:00</time>
      </trkpt>
      <trkpt lat="43.94304" lon="0.33302">
        <ele>135</ele>
        <time>2021-03-13T19:55:10+01:00</time>
      </trkpt>
      <trkpt lat="43.94295" lon="0.33283">
        <ele>136</ele>
        <time>2021-03-13T19:55:15+01:00</time>
      </trkpt>
      <trkpt lat="43.94282" lon="0.33265">
        <ele>136</ele>
        <time>2021-03-13T19:55:20+01:00</time>
      </trkpt>
      <trkpt lat="43.94264" lon="0.33246">
        <ele>137</ele>
        <time>2021-03-13T19:55:25+01:00</time>
      </trkpt>
      <trkpt lat="43.94249" lon="0.33228">
        <ele>139</ele>
        <time>2021-03-13T19:55:30+01:00</time>
      </trkpt>
      <trkpt lat="43.94237" lon="0.33208">
        <ele>140</ele>
        <time>2021-03-13T19:55:35+01:00</time>
      </trkpt>
      <trkpt lat="43.94209" lon="0.3315">
        <ele>146</ele>
        <time>2021-03-13T19:55:40+01:00</time>
      </trkpt>
      <trkpt lat="43.94197" lon="0.33126">
        <ele>149</ele>
        <time>2021-03-13T19:55:45+01:00</time>
      </trkpt>
      <trkpt lat="43.94157" lon="0.3308">
        <ele>153</ele>
        <time>2021-03-13T19:55:50+01:00</time>
      </trkpt>
      <trkpt lat="43.94141" lon="0.33004">
        <ele>155</ele>
        <time>2021-03-13T19:55:55+01:00</time>
      </trkpt>
      <trkpt lat="43.94135" lon="0.32976">
        <ele>155</ele>
        <time>2021-03-13T19:56:00+01:00</time>
      </trkpt>
      <trkpt lat="43.94134" lon="0.32964">
        <ele>154</ele>
        <time>2021-03-13T19:56:05+01:00</time>
      </trkpt>
      <trkpt lat="43.94113" lon="0.32902">
        <ele>152</ele>
        <time>2021-03-13T19:56:10+01:00</time>
      </trkpt>
      <trkpt lat="43.94103" lon="0.3287">
        <ele>151</ele>
        <time>2021-03-13T19:56:15+01:00</time>
      </trkpt>
      <trkpt lat="43.94086" lon="0.32796">
        <ele>151</ele>
        <time>2021-03-13T19:56:20+01:00</time>
      </trkpt>
      <trkpt lat="43.94081" lon="0.32749">
        <ele>151</ele>
        <time>2021-03-13T19:56:25+01:00</time>
      </trkpt>
      <trkpt lat="43.94077" lon="0.3273">
        <ele>152</ele>
        <time>2021-03-13T19:56:30+01:00</time>
      </trkpt>
      <trkpt lat="43.94062" lon="0.32685">
        <ele>157</ele>
        <time>2021-03-13T19:56:35+01:00</time>
      </trkpt>
      <trkpt lat="43.94045" lon="0.32635">
        <ele>162</ele>
        <time>2021-03-13T19:56:40+01:00</time>
      </trkpt>
      <trkpt lat="43.94026" lon="0.32563">
        <ele>168</ele>
        <time>2021-03-13T19:56:45+01:00</time>
      </trkpt>
      <trkpt lat="43.9402" lon="0.3252">
        <ele>170</ele>
        <time>2021-03-13T19:56:50+01:00</time>
      </trkpt>
      <trkpt lat="43.94013" lon="0.32464">
        <ele>172</ele>
        <time>2021-03-13T19:56:55+01:00</time>
      </trkpt>
      <trkpt lat="43.94012" lon="0.32419">
        <ele>174</ele>
        <time>2021-03-13T19:57:00+01:00</time>
      </trkpt>
      <trkpt lat="43.9401" lon="0.32362">
        <ele>174</ele>
        <time>2021-03-13T19:57:05+01:00</time>
      </trkpt>
      <trkpt lat="43.94001" lon="0.32312">
        <ele>175</ele>
        <time>2021-03-13T19:57:10+01:00</time>
      </trkpt>
      <trkpt lat="43.9398" lon="0.32212">
        <ele>175</ele>
        <time>2021-03-13T19:57:15+01:00</time>
      </trkpt>
      <trkpt lat="43.93978" lon="0.32187">
        <ele>175</ele>
        <time>2021-03-13T19:57:20+01:00</time>
      </trkpt>
      <trkpt lat="43.93973" lon="0.3218">
        <ele>175</ele>
        <time>2021-03-13T19:57:25+01:00</time>
      </trkpt>
      <trkpt lat="43.93966" lon="0.3216">
        <ele>175</ele>
        <time>2021-03-13T19:57:30+01:00</time>
      </trkpt>
      <trkpt lat="43.93942" lon="0.32078">
        <ele>175</ele>
        <time>2021-03-13T19:57:35+01:00</time>
      </trkpt>
      <trkpt lat="43.93936" lon="0.32054">
        <ele>175</ele>
        <time>2021-03-13T19:57:40+01:00</time>
      </trkpt>
      <trkpt lat="43.93934" lon="0.32037">
        <ele>175</ele>
        <time>2021-03-13T19:57:45+01:00</time>
      </trkpt>
      <trkpt lat="43.93928" lon="0.3194">
        <ele>175</ele>
        <time>2021-03-13T19:57:50+01:00</time>
      </trkpt>
      <trkpt lat="43.93926" lon="0.31911">
        <ele>175</ele>
        <time>2021-03-13T19:57:55+01:00</time>
      </trkpt>
      <trkpt lat="43.93947" lon="0.31856">
        <ele>175</ele>
        <time>2021-03-13T19:58:00+01:00</time>
      </trkpt>
      <trkpt lat="43.94001" lon="0.31758">
        <ele>175</ele>
        <time>2021-03-13T19:58:05+01:00</time>
      </trkpt>
      <trkpt lat="43.94039" lon="0.31697">
        <ele>174</ele>
        <time>2021-03-13T19:58:10+01:00</time>
      </trkpt>
      <trkpt lat="43.94064" lon="0.31588">
        <ele>174</ele>
        <time>2021-03-13T19:58:15+01:00</time>
      </trkpt>
      <trkpt lat="43.94077" lon="0.31531">
        <ele>173</ele>
        <time>2021-03-13T19:58:20+01:00</time>
      </trkpt>
      <trkpt lat="43.94103" lon="0.315">
        <ele>171</ele>
        <time>2021-03-13T19:58:25+01:00</time>
      </trkpt>
      <trkpt lat="43.94141" lon="0.31407">
        <ele>167</ele>
        <time>2021-03-13T19:58:30+01:00</time>
      </trkpt>
      <trkpt lat="43.94162" lon="0.31368">
        <ele>164</ele>
        <time>2021-03-13T19:58:35+01:00</time>
      </trkpt>
      <trkpt lat="43.94203" lon="0.31371">
        <ele>160</ele>
        <time>2021-03-13T19:58:40+01:00</time>
      </trkpt>
      <trkpt lat="43.94255" lon="0.31328">
        <ele>155</ele>
        <time>2021-03-13T19:58:45+01:00</time>
      </trkpt>
      <trkpt lat="43.94319" lon="0.31282">
        <ele>148</ele>
        <time>2021-03-13T19:58:50+01:00</time>
      </trkpt>
      <trkpt lat="43.94385" lon="0.31227">
        <ele>144</ele>
        <time>2021-03-13T19:58:55+01:00</time>
      </trkpt>
      <trkpt lat="43.94414" lon="0.31199">
        <ele>143</ele>
        <time>2021-03-13T19:59:00+01:00</time>
      </trkpt>
      <trkpt lat="43.94443" lon="0.31194">
        <ele>142</ele>
        <time>2021-03-13T19:59:05+01:00</time>
      </trkpt>
      <trkpt lat="43.94462" lon="0.31155">
        <ele>142</ele>
        <time>2021-03-13T19:59:10+01:00</time>
      </trkpt>
      <trkpt lat="43.94434" lon="0.3111">
        <ele>144</ele>
        <time>2021-03-13T19:59:15+01:00</time>
      </trkpt>
      <trkpt lat="43.94414" lon="0.31051">
        <ele>145</ele>
        <time>2021-03-13T19:59:20+01:00</time>
      </trkpt>
      <trkpt lat="43.94413" lon="0.3095">
        <ele>141</ele>
        <time>2021-03-13T19:59:25+01:00</time>
      </trkpt>
      <trkpt lat="43.94326" lon="0.30853">
        <ele>133</ele>
        <time>2021-03-13T19:59:30+01:00</time>
      </trkpt>
      <trkpt lat="43.94237" lon="0.30744">
        <ele>137</ele>
        <time>2021-03-13T19:59:35+01:00</time>
      </trkpt>
      <trkpt lat="43.94197" lon="0.3074">
        <ele>137</ele>
        <time>2021-03-13T19:59:40+01:00</time>
      </trkpt>
      <trkpt lat="43.94147" lon="0.30747">
        <ele>138</ele>
        <time>2021-03-13T19:59:45+01:00</time>
      </trkpt>
      <trkpt lat="43.94065" lon="0.307">
        <ele>141</ele>
        <time>2021-03-13T19:59:50+01:00</time>
      </trkpt>
      <trkpt lat="43.94032" lon="0.30659">
        <ele>136</ele>
        <time>2021-03-13T19:59:55+01:00</time>
      </trkpt>
      <trkpt lat="43.93968" lon="0.30628">
        <ele>128</ele>
        <time>2021-03-13T20:00:00+01:00</time>
      </trkpt>
      <trkpt lat="43.93927" lon="0.30648">
        <ele>125</ele>
        <time>2021-03-13T20:00:05+01:00</time>
      </trkpt>
      <trkpt lat="43.93888" lon="0.30625">
        <ele>121</ele>
        <time>2021-03-13T20:00:10+01:00</time>
      </trkpt>
      <trkpt lat="43.93892" lon="0.30843">
        <ele>131</ele>
        <time>2021-03-13T20:00:15+01:00</time>
      </trkpt>
      <trkpt lat="43.93878" lon="0.30882">
        <ele>131</ele>
        <time>2021-03-13T20:00:20+01:00</time>
      </trkpt>
    </trkseg>
  </trk>
</gpx>